Time,TemperatureF,DewpointF,PressureIn,WindDirection,WindDirectionDegrees,WindSpeedMPH,WindSpeedGustMPH,Humidity,HourlyPrecipIn,Conditions,Clouds,dailyrainin,SolarRadiationWatts/m^2,SoftwareType,DateUTC
2014-09-23 00:22:00,51.0,38.0,-100.00,North,0,4.0,9.0,62,-99.99,,,0.01,0.000000,,2014-09-23 06:22:00,
2014-09-23 00:33:00,51.0,38.0,-100.00,North,0,4.0,9.0,62,-99.99,,,0.01,0.000000,,2014-09-23 06:33:00,
2014-09-23 03:12:00,50.0,37.0,-100.00,North,0,4.0,9.0,61,-99.99,,,0.01,0.000000,,2014-09-23 09:12:00,
2014-09-23 03:22:00,50.0,37.0,-100.00,North,0,4.0,9.0,61,-99.99,,,0.01,0.000000,,2014-09-23 09:22:00,
2014-09-23 03:34:00,50.0,37.0,-100.00,North,0,4.0,9.0,61,-99.99,,,0.01,0.000000,,2014-09-23 09:34:00,
2014-09-23 09:23:00,52.0,41.0,-100.00,North,0,2.0,6.0,66,-99.99,,,0.01,68.000000,,2014-09-23 15:23:00,
2014-09-23 09:34:00,52.0,41.0,-100.00,North,0,2.0,6.0,66,-99.99,,,0.01,68.000000,,2014-09-23 15:34:00,
2014-09-23 09:43:00,52.0,41.0,-100.00,North,0,2.0,6.0,66,-99.99,,,0.01,68.000000,,2014-09-23 15:43:00,
2014-09-23 10:43:00,60.0,45.0,-100.00,North,0,3.0,4.0,58,0.00,,,0.01,329.000000,,2014-09-23 16:43:00,
2014-09-23 11:13:00,59.0,36.0,-100.00,North,0,5.0,9.0,42,0.00,,,0.01,421.000000,,2014-09-23 17:13:00,
2014-09-23 11:24:00,59.0,36.0,-100.00,North,0,5.0,9.0,42,0.00,,,0.01,421.000000,,2014-09-23 17:24:00,
2014-09-23 11:33:00,59.0,36.0,-100.00,North,0,5.0,9.0,42,0.00,,,0.01,421.000000,,2014-09-23 17:33:00,
2014-09-23 11:44:00,59.0,36.0,-100.00,North,0,5.0,9.0,42,0.00,,,0.01,421.000000,,2014-09-23 17:44:00,
2014-09-23 12:12:00,60.0,43.0,-100.00,North,0,6.0,8.0,53,0.00,,,0.01,544.000000,,2014-09-23 18:12:00,
2014-09-23 12:22:00,60.0,43.0,-100.00,North,0,6.0,8.0,53,0.00,,,0.01,544.000000,,2014-09-23 18:22:00,
2014-09-23 12:32:00,60.0,43.0,-100.00,North,0,6.0,8.0,53,0.00,,,0.01,544.000000,,2014-09-23 18:32:00,
2014-09-23 12:42:00,60.0,43.0,-100.00,North,0,6.0,8.0,53,0.00,,,0.01,544.000000,,2014-09-23 18:42:00,
2014-09-23 13:12:00,61.0,46.0,-100.00,North,0,5.0,9.0,58,0.00,,,0.01,332.000000,,2014-09-23 19:12:00,
2014-09-23 13:22:00,61.0,46.0,-100.00,North,0,5.0,9.0,58,0.00,,,0.01,332.000000,,2014-09-23 19:22:00,
2014-09-23 13:32:00,61.0,46.0,-100.00,North,0,5.0,9.0,58,0.00,,,0.01,332.000000,,2014-09-23 19:32:00,
2014-09-23 13:42:00,61.0,46.0,-100.00,North,0,5.0,9.0,58,0.00,,,0.01,332.000000,,2014-09-23 19:42:00,
2014-09-23 14:13:00,59.0,44.0,-100.00,North,0,4.0,7.0,57,0.00,,,0.01,361.000000,,2014-09-23 20:13:00,
2014-09-23 14:22:00,59.0,44.0,-100.00,North,0,4.0,7.0,57,0.00,,,0.01,361.000000,,2014-09-23 20:22:00,
2014-09-23 14:32:00,59.0,44.0,-100.00,North,0,4.0,7.0,57,0.00,,,0.01,361.000000,,2014-09-23 20:32:00,
2014-09-23 14:43:00,59.0,44.0,-100.00,North,0,4.0,7.0,57,0.00,,,0.01,361.000000,,2014-09-23 20:43:00,
2014-09-23 15:12:00,54.0,38.0,-100.00,North,0,8.0,11.0,54,0.00,,,0.01,130.000000,,2014-09-23 21:12:00,
2014-09-23 15:22:00,54.0,38.0,-100.00,North,0,8.0,11.0,54,0.00,,,0.01,130.000000,,2014-09-23 21:22:00,
2014-09-23 15:33:00,54.0,38.0,-100.00,North,0,8.0,11.0,54,0.00,,,0.01,130.000000,,2014-09-23 21:33:00,
2014-09-23 15:43:00,54.0,38.0,-100.00,North,0,8.0,11.0,54,0.00,,,0.01,130.000000,,2014-09-23 21:43:00,